sensor_id;sensor_type;location;lat;lon;timestamp;temperature;humidity
18446;DHT22;9352;50.888;4.466;2022-07-23T00:01:50;17.30;99.90
18446;DHT22;9352;50.888;4.466;2022-07-23T00:04:16;17.20;99.90
18446;DHT22;9352;50.888;4.466;2022-07-23T00:06:43;17.20;99.90
18446;DHT22;9352;50.888;4.466;2022-07-23T00:09:10;17.20;99.90
18446;DHT22;9352;50.888;4.466;2022-07-23T00:11:37;17.20;99.90
18446;DHT22;9352;50.888;4.466;2022-07-23T00:14:04;17.20;99.90
18446;DHT22;9352;50.888;4.466;2022-07-23T00:16:32;17.20;99.90
18446;DHT22;9352;50.888;4.466;2022-07-23T00:18:59;17.20;99.90
18446;DHT22;9352;50.888;4.466;2022-07-23T00:21:28;17.20;99.90
18446;DHT22;9352;50.888;4.466;2022-07-23T00:23:55;17.10;99.90
18446;DHT22;9352;50.888;4.466;2022-07-23T00:26:21;17.10;99.90
18446;DHT22;9352;50.888;4.466;2022-07-23T00:28:48;17.10;99.90
18446;DHT22;9352;50.888;4.466;2022-07-23T00:31:16;17.10;99.90
18446;DHT22;9352;50.888;4.466;2022-07-23T00:33:44;17.00;99.90
18446;DHT22;9352;50.888;4.466;2022-07-23T00:36:11;17.10;99.90
18446;DHT22;9352;50.888;4.466;2022-07-23T00:38:38;17.00;99.90
18446;DHT22;9352;50.888;4.466;2022-07-23T00:41:05;17.00;99.90
18446;DHT22;9352;50.888;4.466;2022-07-23T00:43:31;17.00;99.90
18446;DHT22;9352;50.888;4.466;2022-07-23T00:45:58;16.90;99.90
18446;DHT22;9352;50.888;4.466;2022-07-23T00:48:25;16.90;99.90
18446;DHT22;9352;50.888;4.466;2022-07-23T00:50:53;16.90;99.90
18446;DHT22;9352;50.888;4.466;2022-07-23T00:53:20;16.90;99.90
18446;DHT22;9352;50.888;4.466;2022-07-23T00:55:47;16.90;99.90
18446;DHT22;9352;50.888;4.466;2022-07-23T00:58:16;16.80;99.90
18446;DHT22;9352;50.888;4.466;2022-07-23T01:00:43;16.80;99.90
18446;DHT22;9352;50.888;4.466;2022-07-23T01:03:10;16.90;99.90
18446;DHT22;9352;50.888;4.466;2022-07-23T01:05:37;16.80;99.90
18446;DHT22;9352;50.888;4.466;2022-07-23T01:08:06;16.80;99.90
18446;DHT22;9352;50.888;4.466;2022-07-23T01:10:32;16.80;99.90
18446;DHT22;9352;50.888;4.466;2022-07-23T01:13:01;16.80;99.90
18446;DHT22;9352;50.888;4.466;2022-07-23T01:15:31;16.70;99.90
18446;DHT22;9352;50.888;4.466;2022-07-23T01:17:58;16.70;99.90
18446;DHT22;9352;50.888;4.466;2022-07-23T01:20:25;16.60;99.90
18446;DHT22;9352;50.888;4.466;2022-07-23T01:22:54;16.70;99.90
18446;DHT22;9352;50.888;4.466;2022-07-23T01:25:21;16.70;99.90
18446;DHT22;9352;50.888;4.466;2022-07-23T01:27:48;16.70;99.90
18446;DHT22;9352;50.888;4.466;2022-07-23T01:30:15;16.60;99.90
18446;DHT22;9352;50.888;4.466;2022-07-23T01:32:42;16.60;99.90
18446;DHT22;9352;50.888;4.466;2022-07-23T01:35:12;16.50;99.90
18446;DHT22;9352;50.888;4.466;2022-07-23T01:37:39;16.50;99.90
18446;DHT22;9352;50.888;4.466;2022-07-23T01:40:08;16.50;99.90
18446;DHT22;9352;50.888;4.466;2022-07-23T01:42:35;16.50;99.90
18446;DHT22;9352;50.888;4.466;2022-07-23T01:45:03;16.40;99.90
18446;DHT22;9352;50.888;4.466;2022-07-23T01:47:33;16.40;99.90
18446;DHT22;9352;50.888;4.466;2022-07-23T01:50:00;16.40;99.90
18446;DHT22;9352;50.888;4.466;2022-07-23T01:52:27;16.40;99.90
18446;DHT22;9352;50.888;4.466;2022-07-23T01:54:54;16.40;99.90
18446;DHT22;9352;50.888;4.466;2022-07-23T01:57:22;16.40;99.90
18446;DHT22;9352;50.888;4.466;2022-07-23T01:59:49;16.40;99.90
18446;DHT22;9352;50.888;4.466;2022-07-23T02:02:16;16.40;99.90
18446;DHT22;9352;50.888;4.466;2022-07-23T02:04:43;16.40;99.90
18446;DHT22;9352;50.888;4.466;2022-07-23T02:07:09;16.30;99.90
18446;DHT22;9352;50.888;4.466;2022-07-23T02:09:36;16.40;99.90
18446;DHT22;9352;50.888;4.466;2022-07-23T02:12:04;16.30;99.90
18446;DHT22;9352;50.888;4.466;2022-07-23T02:14:32;16.30;99.90
18446;DHT22;9352;50.888;4.466;2022-07-23T02:16:59;16.40;99.90
18446;DHT22;9352;50.888;4.466;2022-07-23T02:19:28;16.30;99.90
18446;DHT22;9352;50.888;4.466;2022-07-23T02:21:55;16.30;99.90
18446;DHT22;9352;50.888;4.466;2022-07-23T02:24:22;16.30;99.90
18446;DHT22;9352;50.888;4.466;2022-07-23T02:26:49;16.20;99.90
18446;DHT22;9352;50.888;4.466;2022-07-23T02:29:16;16.20;99.90
18446;DHT22;9352;50.888;4.466;2022-07-23T02:32:07;16.20;99.90
18446;DHT22;9352;50.888;4.466;2022-07-23T02:34:36;16.20;99.90
18446;DHT22;9352;50.888;4.466;2022-07-23T02:37:03;16.10;99.90
18446;DHT22;9352;50.888;4.466;2022-07-23T02:39:30;16.10;99.90
18446;DHT22;9352;50.888;4.466;2022-07-23T02:41:57;16.10;99.90
18446;DHT22;9352;50.888;4.466;2022-07-23T02:44:23;16.10;99.90
18446;DHT22;9352;50.888;4.466;2022-07-23T02:46:50;16.10;99.90
18446;DHT22;9352;50.888;4.466;2022-07-23T02:49:18;16.00;99.90
18446;DHT22;9352;50.888;4.466;2022-07-23T02:51:45;16.00;99.90
18446;DHT22;9352;50.888;4.466;2022-07-23T02:54:12;16.00;99.90
18446;DHT22;9352;50.888;4.466;2022-07-23T02:56:39;16.00;99.90
18446;DHT22;9352;50.888;4.466;2022-07-23T02:59:06;16.00;99.90
18446;DHT22;9352;50.888;4.466;2022-07-23T03:01:33;16.00;99.90
18446;DHT22;9352;50.888;4.466;2022-07-23T03:04:00;16.00;99.90
18446;DHT22;9352;50.888;4.466;2022-07-23T03:06:28;16.00;99.90
18446;DHT22;9352;50.888;4.466;2022-07-23T03:08:55;16.00;99.90
18446;DHT22;9352;50.888;4.466;2022-07-23T03:11:21;15.90;99.90
18446;DHT22;9352;50.888;4.466;2022-07-23T03:13:48;15.90;99.90
18446;DHT22;9352;50.888;4.466;2022-07-23T03:16:15;15.90;99.90
18446;DHT22;9352;50.888;4.466;2022-07-23T03:18:42;15.90;99.90
18446;DHT22;9352;50.888;4.466;2022-07-23T03:21:09;15.80;99.90
18446;DHT22;9352;50.888;4.466;2022-07-23T03:23:37;15.80;99.90
18446;DHT22;9352;50.888;4.466;2022-07-23T03:26:05;15.80;99.90
18446;DHT22;9352;50.888;4.466;2022-07-23T03:28:32;15.80;99.90
18446;DHT22;9352;50.888;4.466;2022-07-23T03:30:59;15.80;99.90
18446;DHT22;9352;50.888;4.466;2022-07-23T03:33:25;15.80;99.90
18446;DHT22;9352;50.888;4.466;2022-07-23T03:35:52;15.70;99.90
18446;DHT22;9352;50.888;4.466;2022-07-23T03:38:19;15.80;99.90
18446;DHT22;9352;50.888;4.466;2022-07-23T03:40:47;15.70;99.90
18446;DHT22;9352;50.888;4.466;2022-07-23T03:43:14;15.70;99.90
18446;DHT22;9352;50.888;4.466;2022-07-23T03:45:41;15.70;99.90
18446;DHT22;9352;50.888;4.466;2022-07-23T03:48:08;15.70;99.90
18446;DHT22;9352;50.888;4.466;2022-07-23T03:50:35;15.70;99.90
18446;DHT22;9352;50.888;4.466;2022-07-23T03:53:02;15.70;99.90
18446;DHT22;9352;50.888;4.466;2022-07-23T03:55:29;15.70;99.90
18446;DHT22;9352;50.888;4.466;2022-07-23T03:57:58;15.70;99.90
18446;DHT22;9352;50.888;4.466;2022-07-23T04:00:25;15.70;99.90
18446;DHT22;9352;50.888;4.466;2022-07-23T04:02:51;15.70;99.90
18446;DHT22;9352;50.888;4.466;2022-07-23T04:05:18;15.70;99.90
18446;DHT22;9352;50.888;4.466;2022-07-23T04:07:45;15.70;99.90
18446;DHT22;9352;50.888;4.466;2022-07-23T04:10:12;15.70;99.90
18446;DHT22;9352;50.888;4.466;2022-07-23T04:12:39;15.70;99.90
18446;DHT22;9352;50.888;4.466;2022-07-23T04:15:09;15.70;99.90
18446;DHT22;9352;50.888;4.466;2022-07-23T04:17:36;15.70;99.90
18446;DHT22;9352;50.888;4.466;2022-07-23T04:20:03;15.80;99.90
18446;DHT22;9352;50.888;4.466;2022-07-23T04:22:30;15.80;99.90
18446;DHT22;9352;50.888;4.466;2022-07-23T04:24:57;15.80;99.90
18446;DHT22;9352;50.888;4.466;2022-07-23T04:27:24;15.80;99.90
18446;DHT22;9352;50.888;4.466;2022-07-23T04:29:51;15.90;99.90
18446;DHT22;9352;50.888;4.466;2022-07-23T04:32:19;15.90;99.90
18446;DHT22;9352;50.888;4.466;2022-07-23T04:34:46;15.90;99.90
18446;DHT22;9352;50.888;4.466;2022-07-23T04:37:13;15.90;99.90
18446;DHT22;9352;50.888;4.466;2022-07-23T04:39:39;15.90;99.90
18446;DHT22;9352;50.888;4.466;2022-07-23T04:42:06;15.90;99.90
18446;DHT22;9352;50.888;4.466;2022-07-23T04:44:33;16.00;99.90
18446;DHT22;9352;50.888;4.466;2022-07-23T04:47:00;16.00;99.90
18446;DHT22;9352;50.888;4.466;2022-07-23T04:49:28;16.00;99.90
18446;DHT22;9352;50.888;4.466;2022-07-23T04:51:55;16.10;99.90
18446;DHT22;9352;50.888;4.466;2022-07-23T04:54:22;16.10;99.90
18446;DHT22;9352;50.888;4.466;2022-07-23T04:56:49;16.20;99.90
18446;DHT22;9352;50.888;4.466;2022-07-23T04:59:15;16.20;99.90
18446;DHT22;9352;50.888;4.466;2022-07-23T05:01:42;16.30;99.90
18446;DHT22;9352;50.888;4.466;2022-07-23T05:04:09;16.30;99.90
18446;DHT22;9352;50.888;4.466;2022-07-23T05:06:38;16.30;99.90
18446;DHT22;9352;50.888;4.466;2022-07-23T05:09:05;16.40;99.90
18446;DHT22;9352;50.888;4.466;2022-07-23T05:11:31;16.40;99.90
18446;DHT22;9352;50.888;4.466;2022-07-23T05:13:58;16.40;99.90
18446;DHT22;9352;50.888;4.466;2022-07-23T05:16:25;16.50;99.90
18446;DHT22;9352;50.888;4.466;2022-07-23T05:18:52;16.50;99.90
18446;DHT22;9352;50.888;4.466;2022-07-23T05:21:19;16.50;99.90
18446;DHT22;9352;50.888;4.466;2022-07-23T05:23:47;16.50;99.90
18446;DHT22;9352;50.888;4.466;2022-07-23T05:26:14;16.60;99.90
18446;DHT22;9352;50.888;4.466;2022-07-23T05:28:41;16.70;99.90
18446;DHT22;9352;50.888;4.466;2022-07-23T05:31:08;16.60;99.90
18446;DHT22;9352;50.888;4.466;2022-07-23T05:33:35;16.70;99.90
18446;DHT22;9352;50.888;4.466;2022-07-23T05:36:03;16.70;99.90
18446;DHT22;9352;50.888;4.466;2022-07-23T05:38:31;16.80;99.90
18446;DHT22;9352;50.888;4.466;2022-07-23T05:41:00;17.10;99.90
18446;DHT22;9352;50.888;4.466;2022-07-23T05:43:27;17.30;99.90
18446;DHT22;9352;50.888;4.466;2022-07-23T05:45:54;17.40;99.90
18446;DHT22;9352;50.888;4.466;2022-07-23T05:48:21;17.40;99.90
18446;DHT22;9352;50.888;4.466;2022-07-23T05:50:48;17.50;99.90
18446;DHT22;9352;50.888;4.466;2022-07-23T05:53:15;17.60;99.90
18446;DHT22;9352;50.888;4.466;2022-07-23T05:55:42;17.70;99.90
18446;DHT22;9352;50.888;4.466;2022-07-23T05:58:10;17.70;99.90
18446;DHT22;9352;50.888;4.466;2022-07-23T06:00:37;17.70;99.90
18446;DHT22;9352;50.888;4.466;2022-07-23T06:03:04;17.80;99.90
18446;DHT22;9352;50.888;4.466;2022-07-23T06:05:31;17.80;99.90
18446;DHT22;9352;50.888;4.466;2022-07-23T06:07:58;17.80;99.90
18446;DHT22;9352;50.888;4.466;2022-07-23T06:10:25;17.90;99.90
18446;DHT22;9352;50.888;4.466;2022-07-23T06:12:52;17.90;99.90
18446;DHT22;9352;50.888;4.466;2022-07-23T06:15:20;17.90;99.90
18446;DHT22;9352;50.888;4.466;2022-07-23T06:17:47;17.90;99.90
18446;DHT22;9352;50.888;4.466;2022-07-23T06:20:14;18.00;99.90
18446;DHT22;9352;50.888;4.466;2022-07-23T06:22:40;18.00;99.90
18446;DHT22;9352;50.888;4.466;2022-07-23T06:25:08;18.10;99.90
18446;DHT22;9352;50.888;4.466;2022-07-23T06:27:35;18.20;99.90
18446;DHT22;9352;50.888;4.466;2022-07-23T06:30:02;18.30;99.90
18446;DHT22;9352;50.888;4.466;2022-07-23T06:32:31;18.30;99.90
18446;DHT22;9352;50.888;4.466;2022-07-23T06:34:58;18.30;99.90
18446;DHT22;9352;50.888;4.466;2022-07-23T06:37:24;18.40;99.90
18446;DHT22;9352;50.888;4.466;2022-07-23T06:39:51;18.40;99.90
18446;DHT22;9352;50.888;4.466;2022-07-23T06:42:18;18.50;99.90
18446;DHT22;9352;50.888;4.466;2022-07-23T06:44:45;18.50;99.90
18446;DHT22;9352;50.888;4.466;2022-07-23T06:47:12;18.60;99.90
18446;DHT22;9352;50.888;4.466;2022-07-23T06:49:40;18.60;99.90
18446;DHT22;9352;50.888;4.466;2022-07-23T06:52:07;18.70;99.90
18446;DHT22;9352;50.888;4.466;2022-07-23T06:54:34;18.80;99.90
18446;DHT22;9352;50.888;4.466;2022-07-23T06:57:01;18.90;99.90
18446;DHT22;9352;50.888;4.466;2022-07-23T06:59:28;18.80;99.90
18446;DHT22;9352;50.888;4.466;2022-07-23T07:01:55;18.90;99.90
18446;DHT22;9352;50.888;4.466;2022-07-23T07:04:24;19.00;99.90
18446;DHT22;9352;50.888;4.466;2022-07-23T07:06:53;19.10;99.90
18446;DHT22;9352;50.888;4.466;2022-07-23T07:09:19;19.20;99.90
18446;DHT22;9352;50.888;4.466;2022-07-23T07:11:46;19.20;99.90
18446;DHT22;9352;50.888;4.466;2022-07-23T07:14:13;19.20;99.90
18446;DHT22;9352;50.888;4.466;2022-07-23T07:16:40;19.30;99.90
18446;DHT22;9352;50.888;4.466;2022-07-23T07:19:07;19.40;99.90
18446;DHT22;9352;50.888;4.466;2022-07-23T07:21:34;19.50;99.90
18446;DHT22;9352;50.888;4.466;2022-07-23T07:24:02;19.50;99.90
18446;DHT22;9352;50.888;4.466;2022-07-23T07:26:29;19.60;99.90
18446;DHT22;9352;50.888;4.466;2022-07-23T07:28:57;19.70;99.90
18446;DHT22;9352;50.888;4.466;2022-07-23T07:31:24;19.80;99.90
18446;DHT22;9352;50.888;4.466;2022-07-23T07:33:51;19.80;99.90
18446;DHT22;9352;50.888;4.466;2022-07-23T07:36:18;19.80;99.90
18446;DHT22;9352;50.888;4.466;2022-07-23T07:38:45;19.90;99.90
18446;DHT22;9352;50.888;4.466;2022-07-23T07:41:13;20.00;99.90
18446;DHT22;9352;50.888;4.466;2022-07-23T07:43:40;20.10;99.90
18446;DHT22;9352;50.888;4.466;2022-07-23T07:46:07;20.10;99.90
18446;DHT22;9352;50.888;4.466;2022-07-23T07:48:35;20.20;99.90
18446;DHT22;9352;50.888;4.466;2022-07-23T07:51:02;20.30;99.90
18446;DHT22;9352;50.888;4.466;2022-07-23T07:53:29;20.30;99.90
18446;DHT22;9352;50.888;4.466;2022-07-23T07:55:56;20.40;99.90
18446;DHT22;9352;50.888;4.466;2022-07-23T07:58:24;20.40;99.90
18446;DHT22;9352;50.888;4.466;2022-07-23T08:00:51;20.60;99.90
18446;DHT22;9352;50.888;4.466;2022-07-23T08:03:18;20.60;99.90
18446;DHT22;9352;50.888;4.466;2022-07-23T08:05:45;20.70;99.90
18446;DHT22;9352;50.888;4.466;2022-07-23T08:08:12;20.80;99.90
18446;DHT22;9352;50.888;4.466;2022-07-23T08:10:41;20.90;99.90
18446;DHT22;9352;50.888;4.466;2022-07-23T08:13:12;21.00;99.90
18446;DHT22;9352;50.888;4.466;2022-07-23T08:15:41;21.10;99.90
18446;DHT22;9352;50.888;4.466;2022-07-23T08:18:08;21.10;99.90
18446;DHT22;9352;50.888;4.466;2022-07-23T08:20:35;21.20;99.90
18446;DHT22;9352;50.888;4.466;2022-07-23T08:23:03;21.30;99.90
18446;DHT22;9352;50.888;4.466;2022-07-23T08:25:33;21.40;99.90
18446;DHT22;9352;50.888;4.466;2022-07-23T08:28:02;21.40;99.90
18446;DHT22;9352;50.888;4.466;2022-07-23T08:30:30;21.50;99.90
18446;DHT22;9352;50.888;4.466;2022-07-23T08:33:00;21.50;99.90
18446;DHT22;9352;50.888;4.466;2022-07-23T08:35:29;21.60;99.90
18446;DHT22;9352;50.888;4.466;2022-07-23T08:37:57;21.80;99.90
18446;DHT22;9352;50.888;4.466;2022-07-23T08:40:26;21.90;99.90
18446;DHT22;9352;50.888;4.466;2022-07-23T08:42:53;22.00;99.90
18446;DHT22;9352;50.888;4.466;2022-07-23T08:45:22;22.10;99.90
18446;DHT22;9352;50.888;4.466;2022-07-23T08:47:50;21.70;99.90
18446;DHT22;9352;50.888;4.466;2022-07-23T08:50:19;21.90;99.90
18446;DHT22;9352;50.888;4.466;2022-07-23T08:52:47;22.10;99.90
18446;DHT22;9352;50.888;4.466;2022-07-23T08:55:17;22.30;99.90
18446;DHT22;9352;50.888;4.466;2022-07-23T08:57:44;22.50;99.90
18446;DHT22;9352;50.888;4.466;2022-07-23T09:00:12;22.60;99.90
18446;DHT22;9352;50.888;4.466;2022-07-23T09:02:40;22.70;99.90
18446;DHT22;9352;50.888;4.466;2022-07-23T09:05:07;22.70;99.90
18446;DHT22;9352;50.888;4.466;2022-07-23T09:07:37;22.70;99.90
18446;DHT22;9352;50.888;4.466;2022-07-23T09:10:06;22.90;99.90
18446;DHT22;9352;50.888;4.466;2022-07-23T09:12:33;23.00;99.90
18446;DHT22;9352;50.888;4.466;2022-07-23T09:15:05;23.20;99.90
18446;DHT22;9352;50.888;4.466;2022-07-23T09:17:38;23.20;99.90
18446;DHT22;9352;50.888;4.466;2022-07-23T09:20:09;23.30;99.90
18446;DHT22;9352;50.888;4.466;2022-07-23T09:22:38;22.80;99.90
18446;DHT22;9352;50.888;4.466;2022-07-23T09:25:08;23.00;99.90
18446;DHT22;9352;50.888;4.466;2022-07-23T09:27:51;23.30;99.90
18446;DHT22;9352;50.888;4.466;2022-07-23T09:30:20;23.70;99.90
18446;DHT22;9352;50.888;4.466;2022-07-23T09:33:05;23.80;99.90
18446;DHT22;9352;50.888;4.466;2022-07-23T09:35:53;24.00;99.90
18446;DHT22;9352;50.888;4.466;2022-07-23T09:38:24;24.10;99.90
18446;DHT22;9352;50.888;4.466;2022-07-23T09:41:06;24.20;99.90
18446;DHT22;9352;50.888;4.466;2022-07-23T09:43:33;24.30;99.90
18446;DHT22;9352;50.888;4.466;2022-07-23T09:46:18;24.40;99.90
18446;DHT22;9352;50.888;4.466;2022-07-23T09:48:45;24.40;99.90
18446;DHT22;9352;50.888;4.466;2022-07-23T09:51:12;24.50;99.90
18446;DHT22;9352;50.888;4.466;2022-07-23T09:53:40;24.60;99.90
18446;DHT22;9352;50.888;4.466;2022-07-23T09:56:07;24.60;99.90
18446;DHT22;9352;50.888;4.466;2022-07-23T09:58:36;24.60;99.90
18446;DHT22;9352;50.888;4.466;2022-07-23T10:03:38;24.80;99.90
18446;DHT22;9352;50.888;4.466;2022-07-23T10:06:06;25.00;99.90
18446;DHT22;9352;50.888;4.466;2022-07-23T10:08:34;25.30;99.90
18446;DHT22;9352;50.888;4.466;2022-07-23T10:11:03;25.60;99.90
18446;DHT22;9352;50.888;4.466;2022-07-23T10:13:30;26.40;99.90
18446;DHT22;9352;50.888;4.466;2022-07-23T10:16:20;26.70;99.90
18446;DHT22;9352;50.888;4.466;2022-07-23T10:18:48;27.30;99.90
18446;DHT22;9352;50.888;4.466;2022-07-23T10:21:20;28.00;99.90
18446;DHT22;9352;50.888;4.466;2022-07-23T10:24:01;28.80;99.90
18446;DHT22;9352;50.888;4.466;2022-07-23T10:26:36;28.40;99.90
18446;DHT22;9352;50.888;4.466;2022-07-23T10:29:16;29.10;99.90
18446;DHT22;9352;50.888;4.466;2022-07-23T10:31:52;29.80;99.90
18446;DHT22;9352;50.888;4.466;2022-07-23T10:34:26;30.70;99.90
18446;DHT22;9352;50.888;4.466;2022-07-23T10:37:01;31.10;99.90
18446;DHT22;9352;50.888;4.466;2022-07-23T10:39:33;31.20;99.90
18446;DHT22;9352;50.888;4.466;2022-07-23T10:42:10;31.50;99.90
18446;DHT22;9352;50.888;4.466;2022-07-23T10:44:42;31.90;99.90
18446;DHT22;9352;50.888;4.466;2022-07-23T10:47:10;32.00;98.90
18446;DHT22;9352;50.888;4.466;2022-07-23T10:50:20;32.10;97.80
18446;DHT22;9352;50.888;4.466;2022-07-23T10:53:09;32.60;96.70
18446;DHT22;9352;50.888;4.466;2022-07-23T10:55:42;33.00;95.90
18446;DHT22;9352;50.888;4.466;2022-07-23T10:58:12;32.80;95.20
18446;DHT22;9352;50.888;4.466;2022-07-23T11:00:44;33.30;94.50
18446;DHT22;9352;50.888;4.466;2022-07-23T11:03:33;32.50;92.90
18446;DHT22;9352;50.888;4.466;2022-07-23T11:06:02;33.00;93.90
18446;DHT22;9352;50.888;4.466;2022-07-23T11:08:30;30.90;94.00
18446;DHT22;9352;50.888;4.466;2022-07-23T11:11:09;30.60;95.30
18446;DHT22;9352;50.888;4.466;2022-07-23T11:13:40;29.70;95.70
18446;DHT22;9352;50.888;4.466;2022-07-23T11:21:47;32.20;93.60
18446;DHT22;9352;50.888;4.466;2022-07-23T11:24:16;31.60;92.90
18446;DHT22;9352;50.888;4.466;2022-07-23T11:26:46;30.70;94.20
18446;DHT22;9352;50.888;4.466;2022-07-23T11:29:42;32.10;92.60
18446;DHT22;9352;50.888;4.466;2022-07-23T11:35:01;34.00;90.40
18446;DHT22;9352;50.888;4.466;2022-07-23T11:37:34;34.30;89.30
18446;DHT22;9352;50.888;4.466;2022-07-23T11:40:04;34.50;87.50
18446;DHT22;9352;50.888;4.466;2022-07-23T11:42:32;34.50;86.80
18446;DHT22;9352;50.888;4.466;2022-07-23T11:45:00;34.90;86.00
18446;DHT22;9352;50.888;4.466;2022-07-23T11:47:27;35.30;84.20
18446;DHT22;9352;50.888;4.466;2022-07-23T11:49:56;35.20;83.20
18446;DHT22;9352;50.888;4.466;2022-07-23T11:52:23;35.40;81.90
18446;DHT22;9352;50.888;4.466;2022-07-23T11:54:53;35.40;81.00
18446;DHT22;9352;50.888;4.466;2022-07-23T11:57:23;35.40;80.70
18446;DHT22;9352;50.888;4.466;2022-07-23T11:59:53;35.80;79.80
18446;DHT22;9352;50.888;4.466;2022-07-23T12:02:23;35.40;78.30
18446;DHT22;9352;50.888;4.466;2022-07-23T12:04:51;34.10;80.90
18446;DHT22;9352;50.888;4.466;2022-07-23T12:07:27;34.70;79.60
18446;DHT22;9352;50.888;4.466;2022-07-23T12:09:54;35.20;78.40
18446;DHT22;9352;50.888;4.466;2022-07-23T12:12:22;35.40;77.40
18446;DHT22;9352;50.888;4.466;2022-07-23T12:14:51;35.60;77.00
18446;DHT22;9352;50.888;4.466;2022-07-23T12:17:19;36.00;78.00
18446;DHT22;9352;50.888;4.466;2022-07-23T12:19:48;36.50;75.90
18446;DHT22;9352;50.888;4.466;2022-07-23T12:22:15;34.80;76.90
18446;DHT22;9352;50.888;4.466;2022-07-23T12:24:58;35.20;76.60
18446;DHT22;9352;50.888;4.466;2022-07-23T12:27:26;33.60;79.20
18446;DHT22;9352;50.888;4.466;2022-07-23T12:29:54;33.90;79.10
18446;DHT22;9352;50.888;4.466;2022-07-23T12:32:22;33.60;77.10
18446;DHT22;9352;50.888;4.466;2022-07-23T12:35:05;34.10;78.40
18446;DHT22;9352;50.888;4.466;2022-07-23T12:37:35;34.90;76.80
18446;DHT22;9352;50.888;4.466;2022-07-23T12:40:22;33.90;78.10
18446;DHT22;9352;50.888;4.466;2022-07-23T12:42:52;33.40;78.50
18446;DHT22;9352;50.888;4.466;2022-07-23T12:45:20;33.80;79.20
18446;DHT22;9352;50.888;4.466;2022-07-23T12:48:01;35.30;77.40
18446;DHT22;9352;50.888;4.466;2022-07-23T12:50:39;33.90;78.40
18446;DHT22;9352;50.888;4.466;2022-07-23T12:53:09;34.70;78.50
18446;DHT22;9352;50.888;4.466;2022-07-23T12:55:37;35.30;77.70
18446;DHT22;9352;50.888;4.466;2022-07-23T12:58:06;34.70;78.40
18446;DHT22;9352;50.888;4.466;2022-07-23T13:00:56;34.80;74.60
18446;DHT22;9352;50.888;4.466;2022-07-23T13:03:25;35.70;74.30
18446;DHT22;9352;50.888;4.466;2022-07-23T13:05:54;36.50;73.60
18446;DHT22;9352;50.888;4.466;2022-07-23T13:08:23;36.20;73.60
18446;DHT22;9352;50.888;4.466;2022-07-23T13:10:50;36.90;72.80
18446;DHT22;9352;50.888;4.466;2022-07-23T13:13:20;37.60;72.40
18446;DHT22;9352;50.888;4.466;2022-07-23T13:15:48;37.50;71.70
18446;DHT22;9352;50.888;4.466;2022-07-23T13:18:15;37.60;72.10
18446;DHT22;9352;50.888;4.466;2022-07-23T13:20:42;36.80;71.00
18446;DHT22;9352;50.888;4.466;2022-07-23T13:23:11;36.50;73.40
18446;DHT22;9352;50.888;4.466;2022-07-23T13:25:38;37.20;72.40
18446;DHT22;9352;50.888;4.466;2022-07-23T13:28:05;37.70;69.70
18446;DHT22;9352;50.888;4.466;2022-07-23T13:30:32;37.70;69.00
18446;DHT22;9352;50.888;4.466;2022-07-23T13:32:59;38.20;68.20
18446;DHT22;9352;50.888;4.466;2022-07-23T13:35:26;38.40;68.20
18446;DHT22;9352;50.888;4.466;2022-07-23T13:37:53;38.40;68.70
18446;DHT22;9352;50.888;4.466;2022-07-23T13:40:21;37.00;68.00
18446;DHT22;9352;50.888;4.466;2022-07-23T13:42:48;36.50;69.50
18446;DHT22;9352;50.888;4.466;2022-07-23T13:45:16;34.90;70.00
18446;DHT22;9352;50.888;4.466;2022-07-23T13:47:42;33.10;73.20
18446;DHT22;9352;50.888;4.466;2022-07-23T13:50:09;31.90;76.10
18446;DHT22;9352;50.888;4.466;2022-07-23T13:52:37;31.70;78.30
18446;DHT22;9352;50.888;4.466;2022-07-23T13:55:05;31.60;79.50
18446;DHT22;9352;50.888;4.466;2022-07-23T13:57:34;30.70;79.50
18446;DHT22;9352;50.888;4.466;2022-07-23T14:00:05;30.30;80.90
18446;DHT22;9352;50.888;4.466;2022-07-23T14:02:35;30.90;81.40
18446;DHT22;9352;50.888;4.466;2022-07-23T14:05:02;31.00;81.10
18446;DHT22;9352;50.888;4.466;2022-07-23T14:07:29;30.60;81.00
18446;DHT22;9352;50.888;4.466;2022-07-23T14:09:56;30.40;82.60
18446;DHT22;9352;50.888;4.466;2022-07-23T14:12:23;30.10;82.20
18446;DHT22;9352;50.888;4.466;2022-07-23T14:14:51;30.10;82.50
18446;DHT22;9352;50.888;4.466;2022-07-23T14:17:18;29.50;84.20
18446;DHT22;9352;50.888;4.466;2022-07-23T14:19:45;29.50;84.50
18446;DHT22;9352;50.888;4.466;2022-07-23T14:22:12;30.60;84.00
18446;DHT22;9352;50.888;4.466;2022-07-23T14:24:39;31.20;82.00
18446;DHT22;9352;50.888;4.466;2022-07-23T14:27:06;31.90;81.10
18446;DHT22;9352;50.888;4.466;2022-07-23T14:29:33;32.80;79.40
18446;DHT22;9352;50.888;4.466;2022-07-23T14:32:03;32.40;79.50
18446;DHT22;9352;50.888;4.466;2022-07-23T14:34:30;32.10;80.00
18446;DHT22;9352;50.888;4.466;2022-07-23T14:36:57;31.50;80.50
18446;DHT22;9352;50.888;4.466;2022-07-23T14:39:24;31.40;82.30
18446;DHT22;9352;50.888;4.466;2022-07-23T14:41:51;31.50;83.60
18446;DHT22;9352;50.888;4.466;2022-07-23T14:44:18;31.50;82.90
18446;DHT22;9352;50.888;4.466;2022-07-23T14:46:45;31.30;82.20
18446;DHT22;9352;50.888;4.466;2022-07-23T14:49:13;31.30;83.20
18446;DHT22;9352;50.888;4.466;2022-07-23T14:51:41;31.90;81.00
18446;DHT22;9352;50.888;4.466;2022-07-23T14:54:09;33.40;78.70
18446;DHT22;9352;50.888;4.466;2022-07-23T14:56:36;34.90;77.60
18446;DHT22;9352;50.888;4.466;2022-07-23T14:59:03;34.80;74.80
18446;DHT22;9352;50.888;4.466;2022-07-23T15:01:29;33.30;77.80
18446;DHT22;9352;50.888;4.466;2022-07-23T15:03:56;33.80;78.20
18446;DHT22;9352;50.888;4.466;2022-07-23T15:06:25;33.60;78.20
18446;DHT22;9352;50.888;4.466;2022-07-23T15:08:55;33.00;78.20
18446;DHT22;9352;50.888;4.466;2022-07-23T15:11:22;32.50;79.30
18446;DHT22;9352;50.888;4.466;2022-07-23T15:13:49;32.80;79.30
18446;DHT22;9352;50.888;4.466;2022-07-23T15:16:16;34.00;78.40
18446;DHT22;9352;50.888;4.466;2022-07-23T15:18:42;34.30;77.30
18446;DHT22;9352;50.888;4.466;2022-07-23T15:21:09;34.50;75.50
18446;DHT22;9352;50.888;4.466;2022-07-23T15:23:37;36.50;73.50
18446;DHT22;9352;50.888;4.466;2022-07-23T15:26:06;38.20;70.80
18446;DHT22;9352;50.888;4.466;2022-07-23T15:28:33;38.30;70.10
18446;DHT22;9352;50.888;4.466;2022-07-23T15:31:00;40.10;67.30
18446;DHT22;9352;50.888;4.466;2022-07-23T15:33:27;41.50;65.20
18446;DHT22;9352;50.888;4.466;2022-07-23T15:35:54;42.20;63.30
18446;DHT22;9352;50.888;4.466;2022-07-23T15:38:23;42.70;62.50
18446;DHT22;9352;50.888;4.466;2022-07-23T15:40:51;42.50;61.50
18446;DHT22;9352;50.888;4.466;2022-07-23T15:43:18;43.20;59.40
18446;DHT22;9352;50.888;4.466;2022-07-23T15:45:45;41.70;59.50
18446;DHT22;9352;50.888;4.466;2022-07-23T15:48:12;39.30;61.40
18446;DHT22;9352;50.888;4.466;2022-07-23T15:50:40;38.20;64.30
18446;DHT22;9352;50.888;4.466;2022-07-23T15:53:06;39.90;63.70
18446;DHT22;9352;50.888;4.466;2022-07-23T15:55:33;39.80;61.80
18446;DHT22;9352;50.888;4.466;2022-07-23T15:58:02;37.80;63.70
18446;DHT22;9352;50.888;4.466;2022-07-23T16:00:29;38.70;63.10
18446;DHT22;9352;50.888;4.466;2022-07-23T16:02:56;38.80;65.40
18446;DHT22;9352;50.888;4.466;2022-07-23T16:05:22;41.20;60.80